• Join FlightAware (Why Join?)
  • Login
  • US Flag 
08:18PM EDT


 

Airport Tracker/Info


-or-


 

Live Flight TrackerFlight Track Log ✈ SWA1035 ✈ 02-May-2013 ✈ KABQ - KPDX

Flight Track Log - Related Links

Times and Time Zones

All times are in EDT time to prevent confusion due to time zone crossing. See the SWA1035 flight status page for this flight to view local times or setup timezone preferences in your user account.

Time Position Orientation Groundspeed Altitude Reporting Facility
EDT Latitude Longitude Course Direction KTS MPH feet Rate Location/Type
04:57PM 35.0436 -106.5417 90° East 187 215 7,100  Level Albuquerque Center
04:58PM 35.0919 -106.5231 17° North 258 297 9,000 2,520 Climbing Albuquerque Center
04:59PM 35.1436 -106.5900 313° West 270 311 12,400 3,540 Climbing Albuquerque Center
05:00PM 35.1972 -106.6628 312° West 285 328 16,300 3,360 Climbing Albuquerque Center
05:01PM 35.2542 -106.7344 314° West 280 322 19,400 2,340 Climbing Albuquerque Center
05:02PM 35.3406 -106.7792 337° Northwest 294 338 21,200 1,740 Climbing Albuquerque Center
05:03PM 35.4333 -106.8258 338° Northwest 339 390 23,100 1,980 Climbing Albuquerque Center
05:04PM 35.5289 -106.8756 337° Northwest 364 419 25,400 1,920 Climbing Albuquerque Center
05:06PM 35.6264 -106.9253 337° Northwest 375 432 27,200 1,920 Climbing Albuquerque Center
05:07PM 35.7428 -106.9867 337° Northwest 390 449 29,400 1,320 Climbing Albuquerque Center
05:08PM 35.8389 -107.0361 337° Northwest 391 450 30,000 240 Climbing Albuquerque Center
05:09PM 35.9511 -107.0933 338° Northwest 390 449 30,000 780 Level Albuquerque Center
05:10PM 36.0467 -107.1439 337° Northwest 387 445 31,700 1,620 Climbing Albuquerque Center
05:11PM 36.1556 -107.2008 337° Northwest 385 443 33,400 1,740 Climbing Albuquerque Center
05:12PM 36.2500 -107.2508 337° Northwest 385 443 35,300 1,740 Climbing Albuquerque Center
05:13PM 36.3406 -107.2997 336° Northwest 377 434 37,000 1,440 Climbing Albuquerque Center
05:14PM 36.4144 -107.3369 338° Northwest 366 421 37,900 540 Climbing Denver Center
05:15PM 36.5219 -107.3842 341° North 370 426 38,000  Climbing Denver Center
05:16PM 36.6239 -107.3958 355° North 385 443 38,000  Level Denver Center
05:17PM 36.7428 -107.4064 356° North 386 444 38,000  Level Denver Center
05:18PM 36.8442 -107.4161 356° North 382 440 38,000  Level Denver Center
05:19PM 36.9389 -107.4869 329° Northwest 376 433 38,000  Level Denver Center
05:20PM 37.0075 -107.5794 313° West 378 435 38,000  Level Denver Center
05:21PM 37.0900 -107.6847 315° West 379 436 38,000  Level Denver Center
05:22PM 37.1603 -107.7761 314° West 381 438 38,000  Level Denver Center
05:23PM 37.2389 -107.8811 313° West 373 429 38,000  Level Denver Center
05:24PM 37.3058 -107.9703 313° West 370 426 38,000  Level Denver Center
05:25PM 37.3850 -108.0758 313° West 371 427 38,000  Level Denver Center
05:26PM 37.4519 -108.1639 314° West 367 422 38,000  Level Denver Center
05:27PM 37.5167 -108.2517 313° West 360 414 38,000  Level Denver Center
05:28PM 37.5917 -108.3531 313° West 355 409 38,000  Level Denver Center
05:29PM 37.6553 -108.4378 313° West 350 403 38,000  Level Denver Center
05:30PM 37.7306 -108.5389 313° West 354 407 38,000  Level Denver Center
05:31PM 37.7958 -108.6267 313° West 357 411 38,000  Level Denver Center
05:32PM 37.8719 -108.7333 312° West 363 418 38,000  Level Denver Center
05:33PM 37.9375 -108.8228 313° West 363 418 38,000  Level Denver Center
05:34PM 38.0139 -108.9247 314° West 359 413 38,000  Level Denver Center
05:35PM 38.0769 -109.0117 313° West 362 417 38,000  Level Denver Center
05:36PM 38.1539 -109.1192 312° West 367 422 38,000  Level Denver Center
05:37PM 38.2200 -109.2089 313° West 366 421 38,000  Level Denver Center
05:38PM 38.2964 -109.3158 312° West 366 421 38,000  Level Denver Center
05:39PM 38.3636 -109.4086 313° West 370 426 38,000  Level Denver Center
05:40PM 38.4422 -109.5178 313° West 374 430 38,000  Level Denver Center
05:41PM 38.5086 -109.6117 312° West 373 429 38,000  Level Denver Center
05:42PM 38.5861 -109.7194 313° West 369 425 38,000  Level Denver Center
05:43PM 38.6517 -109.8117 312° West 368 423 38,000  Level Denver Center
05:44PM 38.6964 -109.8756 312° West 366 421 38,000  Level Salt Lake Center
05:45PM 38.7631 -109.9692 312° West 371 427 38,000  Level Salt Lake Center
05:46PM 38.8414 -110.0800 312° West 374 430 38,000  Level Salt Lake Center
05:47PM 38.8747 -110.1275 312° West 377 434 38,000  Level Denver Center
05:47PM 38.9086 -110.1753 312° West 375 432 38,000  Level Salt Lake Center
05:48PM 38.9875 -110.2883 312° West 379 436 38,000  Level Salt Lake Center
05:49PM 39.0547 -110.3853 312° West 379 436 38,000  Level Salt Lake Center
05:50PM 39.1347 -110.5000 312° West 383 441 38,000  Level Salt Lake Center
05:51PM 39.1558 -110.5314 311° West 381 438 38,000  Level Denver Center
05:52PM 39.2475 -110.6617 312° West 383 441 38,000  Level Denver Center
05:52PM 39.2697 -110.6942 311° West 379 436 38,000  Level Salt Lake Center
05:53PM 39.3481 -110.8078 312° West 379 436 38,000  Level Salt Lake Center
05:54PM 39.4144 -110.9053 311° West 377 434 38,000  Level Salt Lake Center
05:55PM 39.4931 -111.0200 312° West 379 436 38,000  Level Salt Lake Center
05:56PM 39.5608 -111.1200 311° West 385 443 38,000  Level Salt Lake Center
05:57PM 39.6386 -111.2344 311° West 378 435 38,000  Level Salt Lake Center
05:59PM 39.7031 -111.3294 311° West 385 443 38,000  Level Salt Lake Center
06:00PM 39.7725 -111.4342 311° West 385 443 38,000  Level Salt Lake Center
06:01PM 39.8517 -111.5511 311° West 382 440 38,000  Level Salt Lake Center
06:02PM 39.9275 -111.6622 312° West 384 442 38,000  Level Salt Lake Center
06:03PM 39.9972 -111.7681 311° West 382 440 38,000  Level Salt Lake Center
06:04PM 40.0675 -111.8722 311° West 381 438 38,000  Level Salt Lake Center
06:05PM 40.1364 -111.9778 311° West 380 437 38,000  Level Salt Lake Center
06:06PM 40.2058 -112.0825 311° West 380 437 38,000  Level Salt Lake Center
06:07PM 40.2756 -112.1883 311° West 382 440 38,000  Level Salt Lake Center
06:08PM 40.3450 -112.2944 311° West 383 441 38,000  Level Salt Lake Center
06:09PM 40.4286 -112.4222 311° West 383 441 38,000  Level Salt Lake Center
06:10PM 40.4981 -112.5289 311° West 385 443 38,000  Level Salt Lake Center
06:11PM 40.5678 -112.6361 311° West 384 442 38,000  Level Salt Lake Center
06:12PM 40.6369 -112.7439 310° West 385 443 38,000  Level Salt Lake Center
06:13PM 40.7069 -112.8514 311° West 385 443 38,000  Level Salt Lake Center
06:14PM 40.7758 -112.9589 310° West 384 442 38,000  Level Salt Lake Center
06:15PM 40.8458 -113.0678 310° West 387 445 38,000  Level Salt Lake Center
06:16PM 40.9153 -113.1772 310° West 389 448 38,000  Level Salt Lake Center
06:17PM 40.9975 -113.3081 310° West 387 445 38,000  Level Salt Lake Center
06:18PM 41.0661 -113.4175 310° West 387 445 38,000  Level Salt Lake Center
06:19PM 41.1364 -113.5278 310° West 389 448 38,000  Level Salt Lake Center
06:20PM 41.2058 -113.6389 310° West 390 449 38,000  Level Salt Lake Center
06:21PM 41.2747 -113.7492 310° West 389 448 38,000  Level Salt Lake Center
06:22PM 41.3433 -113.8614 309° West 390 449 38,000  Level Salt Lake Center
06:23PM 41.4128 -113.9744 309° West 394 453 38,000  Level Salt Lake Center
06:24PM 41.4994 -114.1092 311° West 398 458 38,000  Level Salt Lake Center
06:25PM 41.5686 -114.2239 309° West 397 457 38,000  Level Salt Lake Center
06:26PM 41.6386 -114.3353 310° West 392 451 38,000  Level Salt Lake Center
06:27PM 41.7075 -114.4497 309° West 394 453 38,000  Level Salt Lake Center
06:28PM 41.7772 -114.5647 309° West 393 452 38,000  Level Salt Lake Center
06:29PM 41.8583 -114.6928 310° West 406 467 38,000  Level Salt Lake Center
06:30PM 41.9244 -114.8017 309° West 397 457 38,000  Level Salt Lake Center
06:31PM 42.0022 -114.9317 309° West 400 460 38,000  Level Salt Lake Center
06:33PM 42.0694 -115.0431 309° West 408 470 38,000  Level Salt Lake Center
06:34PM 42.1381 -115.1578 309° West 403 464 38,000  Level Salt Lake Center
06:35PM 42.2175 -115.2892 309° West 403 464 38,000  Level Salt Lake Center
06:36PM 42.2858 -115.4050 309° West 411 473 38,000  Level Salt Lake Center
06:37PM 42.3661 -115.5400 309° West 413 475 38,000  Level Salt Lake Center
06:38PM 42.4339 -115.6531 309° West 405 466 38,000  Level Salt Lake Center
06:39PM 42.5128 -115.7878 308° West 408 470 38,000  Level Salt Lake Center
06:40PM 42.5803 -115.9028 309° West 408 470 38,000  Level Salt Lake Center
06:41PM 42.6486 -116.0181 309° West 409 471 38,000  Level Salt Lake Center
06:42PM 42.7261 -116.1531 308° West 405 466 38,000  Level Salt Lake Center
06:43PM 42.7936 -116.2694 308° West 407 468 38,000  Level Salt Lake Center
06:44PM 42.8708 -116.4019 309° West 400 460 38,000  Level Salt Lake Center
06:45PM 42.9372 -116.5178 308° West 403 464 38,000  Level Salt Lake Center
06:46PM 43.0142 -116.6517 308° West 402 463 38,000  Level Salt Lake Center
06:47PM 43.0794 -116.7650 308° West 397 457 38,000  Level Salt Lake Center
06:48PM 43.1444 -116.8800 308° West 398 458 38,000  Level Salt Lake Center
06:49PM 43.2208 -117.0153 308° West 400 460 38,000  Level Salt Lake Center
06:50PM 43.2861 -117.1300 308° West 398 458 38,000  Level Salt Lake Center
06:51PM 43.3633 -117.2667 308° West 404 465 38,000  Level Salt Lake Center
06:52PM 43.4286 -117.3847 307° West 406 467 38,000  Level Salt Lake Center
06:53PM 43.4942 -117.5017 308° West 403 464 38,000  Level Salt Lake Center
06:54PM 43.5703 -117.6386 308° West 401 461 38,000  Level Salt Lake Center
06:55PM 43.6342 -117.7544 307° West 396 456 38,000  Level Salt Lake Center
06:56PM 43.7089 -117.8908 307° West 396 456 38,000  Level Salt Lake Center
06:57PM 43.7736 -118.0081 307° West 398 458 38,000  Level Salt Lake Center
06:58PM 43.8475 -118.1439 307° West 396 456 38,000  Level Salt Lake Center
06:59PM 43.9117 -118.2608 307° West 396 456 38,000  Level Salt Lake Center
07:00PM 43.9764 -118.3781 308° West 396 456 38,000  Level Salt Lake Center
07:01PM 44.0417 -118.5031 306° West 399 459 38,000  Level Salt Lake Center
07:02PM 44.1083 -118.6253 307° West 399 459 38,000  Level Salt Lake Center
07:03PM 44.1339 -118.6756 305° West 399 459 38,000  Level Seattle Center
07:04PM 44.1983 -118.7992 306° West 397 457 38,000  Level Seattle Center
07:05PM 44.2653 -118.9214 307° West 397 457 38,000  Level Seattle Center
07:06PM 44.3317 -119.0442 307° West 398 458 38,000  Level Seattle Center
07:07PM 44.3969 -119.1683 306° West 397 457 38,000  Level Seattle Center
07:08PM 44.4625 -119.2925 307° West 397 457 38,000  Level Seattle Center
07:09PM 44.5264 -119.4167 306° West 394 453 38,000  Level Seattle Center
07:10PM 44.5922 -119.5408 307° West 397 457 38,000  Level Seattle Center
07:11PM 44.6558 -119.6650 306° West 392 451 38,000  Level Seattle Center
07:12PM 44.7331 -119.8164 306° West 395 455 38,000  Level Seattle Center
07:13PM 44.7967 -119.9419 306° West 392 451 38,000  Level Seattle Center
07:14PM 44.8628 -120.0711 306° West 399 459 38,000  Level Seattle Center
07:15PM 44.9144 -120.1744 305° West 397 457 38,000 -840 Level Seattle Center
07:16PM 44.9911 -120.3242 306° West 391 450 36,300 -2,400 Descending Seattle Center
07:17PM 45.0561 -120.4539 305° West 400 460 33,200 -2,700 Descending Seattle Center
07:18PM 45.1197 -120.5786 306° West 393 452 30,900 -2,220 Descending Seattle Center
07:19PM 45.1803 -120.7008 305° West 381 438 28,800 -2,040 Descending Seattle Center
07:20PM 45.2381 -120.8169 305° West 363 418 26,800 -1,980 Descending Seattle Center
07:21PM 45.2950 -120.9308 305° West 356 410 24,800 -2,040 Descending Seattle Center
07:22PM 45.3481 -121.0417 304° West 342 394 22,700 -1,920 Descending Seattle Center
07:23PM 45.4025 -121.1492 306° West 336 387 20,900 -2,040 Descending Seattle Center
07:24PM 45.4358 -121.2675 292° West 328 377 18,600 -2,460 Descending Seattle Center
07:24PM 45.4447 -121.3258 282° West 336 387 17,500 -2,100 Descending Seattle Center
07:25PM 45.4528 -121.3989 279° West 337 388 16,500 -1,920 Descending Seattle Center
07:26PM 45.4675 -121.5139 280° West 317 365 14,800 -1,920 Descending Seattle Center
07:27PM 45.4811 -121.6194 280° West 301 346 13,300 -1,440 Descending Seattle Center
07:27PM 45.4817 -121.6383 272° West 304 350 13,000 -1,560 Descending Seattle Center
07:28PM 45.4950 -121.7467 280° West 296 341 11,600 -1,620 Descending Seattle Center
07:29PM 45.5008 -121.8583 274° West 283 326 10,100 -1,620 Descending Seattle Center
07:29PM 45.5006 -121.8881 269° West 283 326 9,600 -1,800 Descending Seattle Center
07:30PM 45.5039 -121.9775 273° West 279 321 8,300 -1,500 Descending Seattle Center
07:30PM 45.5036 -121.9847 267° West 281 323 8,100 -1,920 Descending Seattle Center
07:31PM 45.5067 -122.0844 273° West 269 310 6,400 -1,920 Descending Seattle Center
07:31PM 45.5064 -122.0922 267° West 273 314 6,200 -1,620 Descending Seattle Center
07:32PM 45.5067 -122.1894 270° West 267 307 4,800 -1,500 Descending Seattle Center
07:32PM 45.5094 -122.1989 293° West 274 315 4,700 -840 Descending Seattle Center
07:33PM 45.5097 -122.2900 270° West 253 291 4,000 -720 Descending Seattle Center
07:33PM 45.5122 -122.3172 277° West 258 297 4,000 -720 Level Seattle Center
07:34PM 45.5114 -122.3819 269° West 177 204 3,200 -960 Descending Seattle Center
07:35PM 45.5342 -122.4403 299° West 168 193 2,200 -1,020 Descending Seattle Center
07:36PM 45.5561 -122.4961 299° West 158 182 1,200 -900 Descending Seattle Center
07:37PM 45.5739 -122.5411 299° West 128 147 500 -720 Descending Seattle Center
07:39PM 45.5833 -122.5833 282° West  Level FlightAware Approximate